Time;durP1;ratioP1;P1;durP2;ratioP2;P2;SDS_P1;SDS_P2;PMS_P1;PMS_P2;Temp;Humidity;BMP_temperature;BMP_pressure;BME280_temperature;BME280_humidity;BME280_pressure;Samples;Min_cycle;Max_cycle;Signal;HPM_P1;HPM_P2
2022/08/06 00:01:37;;;;;;;10.93;10.43;;;22.70;23.50;;;;;;5069842;28;20340;-60
2022/08/06 00:04:02;;;;;;;10.80;10.40;;;22.60;23.50;;;;;;5070034;28;20598;-65
2022/08/06 00:06:29;;;;;;;11.00;10.60;;;22.60;23.50;;;;;;5070052;28;20642;-66
2022/08/06 00:08:55;;;;;;;11.27;10.87;;;22.60;23.50;;;;;;5069820;28;20206;-65
2022/08/06 00:11:20;;;;;;;12.07;11.20;;;22.50;23.40;;;;;;5069888;28;20476;-64
2022/08/06 00:13:46;;;;;;;10.97;10.63;;;22.50;23.90;;;;;;5070015;28;20182;-65
2022/08/06 00:16:12;;;;;;;11.60;11.10;;;22.70;23.50;;;;;;5070046;28;20168;-65
2022/08/06 00:18:37;;;;;;;10.93;10.53;;;22.70;23.50;;;;;;5069538;28;20180;-64
2022/08/06 00:21:03;;;;;;;11.27;10.87;;;22.70;23.50;;;;;;5069870;28;20578;-66
2022/08/06 00:23:29;;;;;;;10.53;10.13;;;22.60;23.40;;;;;;5069943;28;20265;-66
2022/08/06 00:25:54;;;;;;;10.97;10.50;;;22.50;23.40;;;;;;5069711;28;20180;-66
2022/08/06 00:28:25;;;;;;;10.50;10.10;;;22.50;23.40;;;;;;5069988;28;20207;-66
2022/08/06 00:30:50;;;;;;;11.00;10.60;;;22.60;23.50;;;;;;5069718;28;20653;-59
2022/08/06 00:33:16;;;;;;;11.20;10.73;;;22.60;23.50;;;;;;5069736;28;20763;-59
2022/08/06 00:35:43;;;;;;;11.47;11.00;;;22.50;23.40;;;;;;5069747;28;20175;-59
2022/08/06 00:38:09;;;;;;;11.20;10.73;;;22.50;23.30;;;;;;5069990;28;20175;-59
2022/08/06 00:40:35;;;;;;;11.37;10.97;;;22.50;22.90;;;;;;5070382;28;20408;-59
2022/08/06 00:43:03;;;;;;;11.13;10.73;;;22.60;22.50;;;;;;5073278;28;20937;-59
2022/08/06 00:45:33;;;;;;;10.80;10.40;;;22.60;22.10;;;;;;5073292;28;20909;-59
2022/08/06 00:48:00;;;;;;;11.10;10.70;;;22.60;21.80;;;;;;5072920;28;20489;-59
2022/08/06 00:50:26;;;;;;;10.73;10.33;;;22.60;21.50;;;;;;5073007;28;20413;-65
2022/08/06 00:52:53;;;;;;;10.53;10.13;;;22.60;21.50;;;;;;5073279;28;20831;-65
2022/08/06 00:55:19;;;;;;;10.40;10.10;;;22.60;21.50;;;;;;5072741;28;20402;-65
2022/08/06 00:57:45;;;;;;;10.30;10.00;;;22.60;21.50;;;;;;5073083;28;20766;-65
2022/08/06 01:00:12;;;;;;;10.57;9.97;;;22.60;21.40;;;;;;5072736;28;20656;-66
2022/08/06 01:02:37;;;;;;;9.97;9.57;;;22.60;21.50;;;;;;5072613;28;20422;-65
2022/08/06 01:05:03;;;;;;;10.80;10.30;;;22.50;20.70;;;;;;5072979;28;20421;-66
2022/08/06 01:07:29;;;;;;;10.53;10.13;;;22.50;20.30;;;;;;5072625;28;20210;-66
2022/08/06 01:09:54;;;;;;;10.80;10.40;;;22.50;20.30;;;;;;5072683;28;20409;-64
2022/08/06 01:12:20;;;;;;;10.83;10.43;;;22.60;20.40;;;;;;5072639;28;20195;-59
2022/08/06 01:14:46;;;;;;;11.13;10.47;;;22.50;20.60;;;;;;5072982;28;20628;-59
2022/08/06 01:17:33;;;;;;;11.40;10.60;;;22.40;21.00;;;;;;5072405;28;20182;-59
2022/08/06 01:20:36;;;;;;;10.33;9.93;;;22.40;19.80;;;;;;5072665;28;20179;-59
2022/08/06 01:23:20;;;;;;;10.10;9.80;;;22.50;21.60;;;;;;5059180;28;20420;-66
2022/08/06 01:26:10;;;;;;;10.37;9.97;;;22.40;21.00;;;;;;5072593;28;20405;-65
2022/08/06 01:28:46;;;;;;;10.20;9.80;;;22.40;19.70;;;;;;5072325;28;20823;-60
2022/08/06 01:31:34;;;;;;;10.30;9.70;;;22.40;20.20;;;;;;5072003;28;20433;-60
2022/08/06 01:34:05;;;;;;;10.43;10.03;;;22.50;20.30;;;;;;5072531;28;20413;-60
2022/08/06 01:36:39;;;;;;;10.73;10.20;;;22.60;19.40;;;;;;5072309;28;20444;-60
2022/08/06 01:39:04;;;;;;;10.47;10.10;;;22.40;20.00;;;;;;5072113;28;20925;-65
2022/08/06 01:41:42;;;;;;;11.20;10.80;;;22.40;20.00;;;;;;5071963;28;20554;-65
2022/08/06 01:44:16;;;;;;;10.70;10.40;;;22.40;19.90;;;;;;5072483;28;20205;-66
2022/08/06 01:46:48;;;;;;;10.60;10.30;;;22.50;19.80;;;;;;5071773;28;20758;-65
2022/08/06 01:49:19;;;;;;;10.47;10.07;;;22.60;20.40;;;;;;5072416;28;20743;-65
2022/08/06 01:51:47;;;;;;;10.47;10.17;;;22.50;18.90;;;;;;5071899;28;20483;-60
2022/08/06 01:54:14;;;;;;;10.23;9.83;;;22.50;19.10;;;;;;5071833;28;20402;-59
2022/08/06 01:56:43;;;;;;;10.77;10.00;;;22.10;19.80;;;;;;5071940;28;20470;-60
2022/08/06 01:59:12;;;;;;;10.20;9.80;;;22.20;21.20;;;;;;5071752;28;20421;-60
2022/08/06 02:01:39;;;;;;;10.70;10.30;;;22.00;20.00;;;;;;5071270;28;20424;-64
2022/08/06 02:04:06;;;;;;;10.60;10.10;;;22.10;20.10;;;;;;5071610;28;20418;-65
2022/08/06 02:06:36;;;;;;;10.43;10.03;;;22.30;19.60;;;;;;5071584;28;20410;-65
2022/08/06 02:09:07;;;;;;;10.20;9.70;;;22.40;19.00;;;;;;5071526;28;20414;-60
2022/08/06 02:11:36;;;;;;;10.80;10.37;;;22.40;18.80;;;;;;5071185;28;20428;-60
2022/08/06 02:14:04;;;;;;;10.07;9.67;;;22.30;19.20;;;;;;5071591;28;20405;-60
2022/08/06 02:16:34;;;;;;;10.47;10.00;;;22.40;19.10;;;;;;5071166;28;20424;-66
2022/08/06 02:19:03;;;;;;;10.40;10.10;;;22.30;19.20;;;;;;5071500;28;20410;-65
2022/08/06 02:21:31;;;;;;;10.47;10.17;;;22.10;19.50;;;;;;5071152;28;20414;-65
2022/08/06 02:23:59;;;;;;;11.10;10.70;;;22.20;19.40;;;;;;5071228;28;20459;-65
2022/08/06 02:26:26;;;;;;;10.47;10.00;;;22.20;19.50;;;;;;5071106;28;20456;-65
2022/08/06 02:28:55;;;;;;;10.80;10.40;;;22.30;19.30;;;;;;5071260;28;20463;-64
2022/08/06 02:31:21;;;;;;;10.77;10.27;;;22.20;19.20;;;;;;5070795;28;21289;-65
2022/08/06 02:33:47;;;;;;;10.67;10.27;;;22.20;20.20;;;;;;5071144;28;20492;-65
2022/08/06 02:36:16;;;;;;;10.60;10.23;;;22.30;19.10;;;;;;5071240;28;20171;-64
2022/08/06 02:38:48;;;;;;;11.53;10.63;;;22.20;19.50;;;;;;5070682;28;20266;-64
2022/08/06 02:41:20;;;;;;;10.50;10.20;;;22.20;19.30;;;;;;5070800;28;20420;-65
2022/08/06 02:43:56;;;;;;;11.07;10.67;;;22.20;20.10;;;;;;5071004;28;20413;-65
2022/08/06 02:46:24;;;;;;;10.70;10.40;;;21.60;20.60;;;;;;5070621;28;21190;-65
2022/08/06 02:48:56;;;;;;;10.83;10.43;;;21.70;21.20;;;;;;5070989;28;20413;-65
2022/08/06 02:51:39;;;;;;;9.97;9.67;;;21.90;20.40;;;;;;5070574;28;20913;-65
2022/08/06 02:54:10;;;;;;;10.80;10.37;;;22.10;20.30;;;;;;5070987;28;20420;-64
2022/08/06 02:56:41;;;;;;;11.23;10.50;;;22.10;19.60;;;;;;5070745;28;20410;-64
2022/08/06 02:59:08;;;;;;;10.97;10.47;;;22.00;19.80;;;;;;5070715;28;20407;-64
2022/08/06 03:01:54;;;;;;;10.67;10.37;;;22.00;19.90;;;;;;5070275;28;20432;-64
2022/08/06 03:04:23;;;;;;;10.63;10.33;;;21.70;20.90;;;;;;5070459;28;20412;-64
2022/08/06 03:06:50;;;;;;;10.80;10.30;;;21.50;21.20;;;;;;5070390;28;20887;-64
2022/08/06 03:09:18;;;;;;;11.53;11.13;;;21.70;20.50;;;;;;5070791;28;20400;-64
2022/08/06 03:11:45;;;;;;;11.50;11.10;;;21.80;20.60;;;;;;5070311;28;20483;-64
2022/08/06 03:14:14;;;;;;;11.27;10.87;;;21.70;21.50;;;;;;5070508;28;20413;-65
2022/08/06 03:16:40;;;;;;;11.13;10.33;;;21.80;20.50;;;;;;5070444;28;20424;-64
2022/08/06 03:19:08;;;;;;;10.93;10.53;;;21.80;20.50;;;;;;5070736;28;20760;-65
2022/08/06 03:21:34;;;;;;;11.60;11.00;;;21.80;20.80;;;;;;5069951;28;21120;-64
2022/08/06 03:24:00;;;;;;;11.60;11.10;;;21.90;20.50;;;;;;5070704;28;20499;-64
2022/08/06 03:26:28;;;;;;;11.40;11.00;;;21.90;20.20;;;;;;5070356;28;20563;-65
2022/08/06 03:28:55;;;;;;;11.03;10.67;;;21.90;20.50;;;;;;5070280;28;20769;-64
2022/08/06 03:31:23;;;;;;;10.83;10.53;;;21.50;21.10;;;;;;5070005;28;20421;-59
2022/08/06 03:33:52;;;;;;;10.60;10.20;;;21.40;21.20;;;;;;5070532;28;20416;-59
2022/08/06 03:36:19;;;;;;;10.73;10.33;;;21.50;21.30;;;;;;5070306;28;20402;-59
2022/08/06 03:39:00;;;;;;;11.60;11.10;;;21.60;21.20;;;;;;5070292;28;20780;-59
2022/08/06 03:41:27;;;;;;;12.10;11.20;;;21.80;21.00;;;;;;5070088;28;21020;-65
2022/08/06 03:43:53;;;;;;;11.83;11.43;;;21.80;20.60;;;;;;5070149;28;20437;-60
2022/08/06 03:46:27;;;;;;;10.93;10.53;;;21.80;20.70;;;;;;5070193;28;20413;-60
2022/08/06 03:48:56;;;;;;;11.90;11.20;;;21.50;21.90;;;;;;5070458;28;20171;-60
2022/08/06 03:51:25;;;;;;;11.27;10.77;;;21.60;21.90;;;;;;5069740;28;20410;-60
2022/08/06 03:53:52;;;;;;;11.23;10.87;;;21.40;22.90;;;;;;5070221;28;20409;-60
2022/08/06 03:56:23;;;;;;;11.00;10.60;;;21.60;22.40;;;;;;5070375;28;20409;-60
2022/08/06 03:58:52;;;;;;;11.60;11.10;;;21.70;21.00;;;;;;5069827;28;20410;-60
2022/08/06 04:01:27;;;;;;;11.10;10.70;;;21.70;21.10;;;;;;5069975;28;20417;-60
2022/08/06 04:03:53;;;;;;;11.73;11.27;;;21.70;21.60;;;;;;5081339;28;20789;-60
2022/08/06 04:06:23;;;;;;;11.93;11.40;;;21.70;22.00;;;;;;5089994;28;20404;-60
2022/08/06 04:08:49;;;;;;;11.83;11.33;;;21.50;21.60;;;;;;5090154;28;20484;-59
2022/08/06 04:11:17;;;;;;;12.23;11.63;;;21.40;22.50;;;;;;5090161;28;20439;-60
2022/08/06 04:13:43;;;;;;;11.47;11.07;;;21.50;21.50;;;;;;5090022;28;20413;-59
2022/08/06 04:16:12;;;;;;;11.50;10.70;;;21.60;21.50;;;;;;5092555;28;20935;-59
2022/08/06 04:18:40;;;;;;;10.70;10.30;;;21.60;21.30;;;;;;5094001;28;20450;-60
2022/08/06 04:21:10;;;;;;;11.90;11.30;;;21.60;21.20;;;;;;5093739;28;20424;-60
2022/08/06 04:23:38;;;;;;;11.20;10.80;;;21.70;22.10;;;;;;5093978;28;20817;-60
2022/08/06 04:26:07;;;;;;;12.10;11.50;;;21.50;21.60;;;;;;5094077;28;20415;-59
2022/08/06 04:28:36;;;;;;;11.10;10.80;;;21.20;23.00;;;;;;5093355;28;20456;-60
2022/08/06 04:31:02;;;;;;;11.93;11.53;;;21.40;22.60;;;;;;5093717;28;20420;-60
2022/08/06 04:33:30;;;;;;;11.40;11.00;;;21.50;22.20;;;;;;5093758;28;20895;-60
2022/08/06 04:35:58;;;;;;;11.97;11.47;;;21.50;22.70;;;;;;5093413;28;20745;-59
2022/08/06 04:38:24;;;;;;;11.57;11.17;;;21.60;22.80;;;;;;5093786;28;20408;-60
2022/08/06 04:40:50;;;;;;;11.60;11.20;;;21.70;21.50;;;;;;5093550;28;20412;-60
2022/08/06 04:43:16;;;;;;;12.00;11.40;;;21.70;21.60;;;;;;5093395;28;20420;-59
2022/08/06 04:45:43;;;;;;;12.10;11.70;;;21.70;21.50;;;;;;5093450;28;20760;-60
2022/08/06 04:48:10;;;;;;;11.93;11.53;;;21.40;22.60;;;;;;5093471;28;20203;-60
2022/08/06 04:50:37;;;;;;;11.83;11.43;;;21.00;22.70;;;;;;5092842;28;20887;-59
2022/08/06 04:53:07;;;;;;;11.97;11.57;;;21.20;22.50;;;;;;5093524;28;20419;-60
2022/08/06 04:55:33;;;;;;;11.80;11.27;;;21.30;22.90;;;;;;5093206;28;20491;-59
2022/08/06 04:58:00;;;;;;;12.13;11.53;;;21.40;22.50;;;;;;5093335;28;20860;-66
2022/08/06 05:00:26;;;;;;;11.43;11.07;;;21.50;22.00;;;;;;5092869;28;20206;-66
2022/08/06 05:02:52;;;;;;;11.67;11.27;;;21.60;22.00;;;;;;5093340;28;20551;-60
2022/08/06 05:05:21;;;;;;;11.83;11.33;;;21.60;22.00;;;;;;5093050;28;20201;-60
2022/08/06 05:07:50;;;;;;;12.00;11.60;;;21.00;22.90;;;;;;5093037;28;20240;-60
2022/08/06 05:10:15;;;;;;;12.27;11.87;;;21.20;24.00;;;;;;5092952;28;20419;-60
2022/08/06 05:12:48;;;;;;;12.13;11.63;;;21.30;22.60;;;;;;5093915;28;20433;-60
2022/08/06 05:15:31;;;;;;;12.30;11.90;;;21.40;22.40;;;;;;5093220;28;20174;-60
2022/08/06 05:17:58;;;;;;;12.77;11.83;;;21.60;22.20;;;;;;5093116;28;20419;-60
2022/08/06 05:20:26;;;;;;;12.67;11.90;;;21.40;22.70;;;;;;5092401;28;20420;-60
2022/08/06 05:22:55;;;;;;;12.23;11.83;;;21.30;22.60;;;;;;5092941;28;20915;-60
2022/08/06 05:25:21;;;;;;;12.07;11.47;;;21.40;22.60;;;;;;5092900;28;20413;-60
2022/08/06 05:27:47;;;;;;;12.17;11.60;;;21.60;22.80;;;;;;5091785;28;20456;-60
2022/08/06 05:30:13;;;;;;;11.67;11.27;;;21.60;22.20;;;;;;5092695;28;20470;-60
2022/08/06 05:32:43;;;;;;;11.90;11.30;;;21.70;22.20;;;;;;5092469;28;20404;-60
2022/08/06 05:35:09;;;;;;;11.77;11.27;;;21.30;22.60;;;;;;5092553;28;20167;-60
2022/08/06 05:37:35;;;;;;;12.37;11.97;;;21.30;22.60;;;;;;5092520;28;20950;-60
2022/08/06 05:40:01;;;;;;;12.47;11.97;;;21.30;22.60;;;;;;5092217;28;20178;-60
2022/08/06 05:42:26;;;;;;;12.50;12.00;;;21.40;22.60;;;;;;5092262;28;20231;-64
2022/08/06 05:44:52;;;;;;;12.70;11.93;;;21.50;22.70;;;;;;5092740;28;20507;-65
2022/08/06 05:47:23;;;;;;;12.40;11.90;;;21.50;23.40;;;;;;5093700;28;20528;-65
2022/08/06 05:49:55;;;;;;;12.27;11.77;;;21.00;23.40;;;;;;5092211;28;20628;-65
2022/08/06 05:52:29;;;;;;;12.63;12.13;;;21.20;22.90;;;;;;5077834;28;20414;-65
2022/08/06 05:54:58;;;;;;;13.03;12.50;;;21.20;23.10;;;;;;5053922;28;20410;-68
2022/08/06 05:57:37;;;;;;;12.17;11.77;;;21.30;23.70;;;;;;5051935;28;20945;-66
2022/08/06 06:00:12;;;;;;;13.10;12.60;;;20.80;24.20;;;;;;5052120;28;20437;-66
2022/08/06 06:02:44;;;;;;;13.30;12.60;;;20.90;24.60;;;;;;5052274;28;20433;-66
2022/08/06 06:05:11;;;;;;;14.00;13.30;;;20.30;25.20;;;;;;5052096;28;20636;-60
2022/08/06 06:07:38;;;;;;;13.27;12.80;;;20.40;26.00;;;;;;5052059;28;20867;-65
2022/08/06 06:10:05;;;;;;;13.47;12.97;;;20.30;25.80;;;;;;5051998;28;20490;-66
2022/08/06 06:12:32;;;;;;;13.60;12.87;;;20.30;25.80;;;;;;5051466;28;20442;-59
2022/08/06 06:15:00;;;;;;;13.30;12.70;;;20.30;26.00;;;;;;5051420;28;20422;-58
2022/08/06 06:17:37;;;;;;;13.70;13.20;;;20.20;26.00;;;;;;5052638;28;20972;-62
2022/08/06 06:20:06;;;;;;;13.20;12.60;;;20.40;26.60;;;;;;5050982;28;20781;-58
2022/08/06 06:22:39;;;;;;;13.27;12.87;;;20.50;25.90;;;;;;5050509;28;20425;-58
2022/08/06 06:25:11;;;;;;;15.13;14.30;;;20.90;24.90;;;;;;5051017;28;20433;-58
2022/08/06 06:27:49;;;;;;;13.57;13.10;;;20.70;24.60;;;;;;5051295;28;20469;-58
2022/08/06 06:30:50;;;;;;;13.60;12.80;;;20.40;26.50;;;;;;5051318;28;20766;-62
2022/08/06 06:33:29;;;;;;;13.20;12.43;;;20.80;25.60;;;;;;5028717;28;20422;-62
2022/08/06 06:36:02;;;;;;;12.97;12.37;;;20.60;25.10;;;;;;5051564;28;20742;-63
2022/08/06 06:39:04;;;;;;;13.77;12.90;;;20.40;25.90;;;;;;5050796;28;20483;-62
2022/08/06 06:41:49;;;;;;;13.37;12.87;;;20.60;25.80;;;;;;5051107;28;20862;-63
2022/08/06 06:44:20;;;;;;;12.77;12.27;;;20.70;25.70;;;;;;5051286;28;20437;-63
2022/08/06 06:47:17;;;;;;;13.70;13.00;;;21.00;25.40;;;;;;5051035;28;20492;-63
2022/08/06 06:49:48;;;;;;;12.27;11.77;;;20.90;24.90;;;;;;5050825;28;20422;-63
2022/08/06 06:52:19;;;;;;;12.27;11.77;;;21.10;24.90;;;;;;5050927;28;20415;-62
2022/08/06 06:54:51;;;;;;;12.97;12.20;;;21.10;24.30;;;;;;5050958;28;20992;-63
2022/08/06 06:57:23;;;;;;;12.70;11.97;;;20.80;25.00;;;;;;5050777;28;20762;-64
2022/08/06 06:59:52;;;;;;;13.10;12.60;;;20.90;24.70;;;;;;5051008;28;20418;-62
2022/08/06 07:02:28;;;;;;;12.47;11.80;;;21.10;24.80;;;;;;5050217;28;20427;-63
2022/08/06 07:04:56;;;;;;;12.30;11.90;;;21.00;25.00;;;;;;5050300;28;20422;-63
2022/08/06 07:07:23;;;;;;;12.60;12.10;;;20.90;24.50;;;;;;5050614;28;20484;-63
2022/08/06 07:09:50;;;;;;;12.90;12.40;;;21.00;25.50;;;;;;5050820;28;20406;-63
2022/08/06 07:12:21;;;;;;;13.30;12.50;;;21.00;24.70;;;;;;5050133;28;20470;-64
2022/08/06 07:14:50;;;;;;;12.90;12.40;;;21.20;24.40;;;;;;5050777;28;20415;-61
2022/08/06 07:17:18;;;;;;;13.00;12.50;;;21.10;25.60;;;;;;5050640;28;20418;-63
2022/08/06 07:19:47;;;;;;;13.03;12.63;;;21.20;24.70;;;;;;5050422;28;20799;-62
2022/08/06 07:22:14;;;;;;;13.30;12.70;;;21.00;24.30;;;;;;5050369;28;20414;-62
2022/08/06 07:24:41;;;;;;;13.03;12.50;;;20.90;24.90;;;;;;5050447;28;20410;-63
2022/08/06 07:27:09;;;;;;;13.00;12.30;;;20.90;25.00;;;;;;5050003;28;20481;-62
2022/08/06 07:29:35;;;;;;;12.63;12.13;;;21.00;25.50;;;;;;5050392;28;20441;-62
2022/08/06 07:32:01;;;;;;;11.67;11.33;;;21.00;24.70;;;;;;5050259;28;20989;-62
2022/08/06 07:34:27;;;;;;;13.77;13.07;;;20.90;24.50;;;;;;5049960;28;20419;-59
2022/08/06 07:36:55;;;;;;;13.60;13.10;;;20.70;25.80;;;;;;5050576;28;20758;-58
2022/08/06 07:39:36;;;;;;;12.63;12.13;;;20.90;24.90;;;;;;5050056;28;20504;-57
2022/08/06 07:42:07;;;;;;;12.43;11.93;;;21.00;24.80;;;;;;5050121;28;20793;-57
2022/08/06 07:44:36;;;;;;;12.30;11.73;;;21.10;24.70;;;;;;5050123;28;20422;-59
2022/08/06 07:47:05;;;;;;;13.40;12.23;;;21.10;24.30;;;;;;5050354;28;20450;-59
2022/08/06 07:49:39;;;;;;;12.87;12.27;;;21.00;24.80;;;;;;5051157;28;20934;-59
2022/08/06 07:52:05;;;;;;;13.10;12.50;;;21.00;24.80;;;;;;5054171;28;20471;-58
2022/08/06 07:54:32;;;;;;;12.80;12.30;;;20.70;24.90;;;;;;5054066;28;20418;-58
2022/08/06 07:56:58;;;;;;;12.87;12.40;;;20.70;24.90;;;;;;5054107;28;20422;-58
2022/08/06 07:59:25;;;;;;;14.17;12.73;;;21.00;24.70;;;;;;5054024;28;20832;-58
2022/08/06 08:01:52;;;;;;;13.40;12.80;;;21.00;24.70;;;;;;5053005;28;20415;-58
2022/08/06 08:07:04;;;;;;;13.73;13.23;;;21.20;24.60;;;;;;5055636;28;20988;-65
2022/08/06 08:09:31;;;;;;;12.90;12.40;;;21.20;23.60;;;;;;5053616;28;20919;-65
2022/08/06 08:11:57;;;;;;;12.77;12.23;;;21.30;23.50;;;;;;5053435;28;20435;-62
2022/08/06 08:14:24;;;;;;;12.70;12.30;;;21.40;23.30;;;;;;5053727;28;20498;-59
2022/08/06 08:16:50;;;;;;;12.97;12.47;;;21.20;23.50;;;;;;5053178;28;20414;-59
2022/08/06 08:19:22;;;;;;;12.20;11.80;;;21.30;23.80;;;;;;5052629;28;20409;-59
2022/08/06 08:21:48;;;;;;;13.37;12.77;;;21.50;23.20;;;;;;5053363;28;20522;-63
2022/08/06 08:24:15;;;;;;;14.97;14.20;;;21.60;23.50;;;;;;5053493;28;20492;-64
2022/08/06 08:26:41;;;;;;;12.97;12.37;;;21.80;22.90;;;;;;5052539;28;20434;-65
2022/08/06 08:29:09;;;;;;;12.00;11.50;;;21.40;22.60;;;;;;5053711;28;20402;-64
2022/08/06 08:31:34;;;;;;;12.77;12.13;;;21.60;23.10;;;;;;5053316;28;20553;-65
2022/08/06 08:34:00;;;;;;;12.13;11.63;;;21.70;22.80;;;;;;5053286;28;20426;-64
2022/08/06 08:36:26;;;;;;;12.40;11.70;;;21.70;22.70;;;;;;5053297;28;20172;-64
2022/08/06 08:38:56;;;;;;;12.50;12.10;;;21.90;22.20;;;;;;5055324;28;20176;-64
2022/08/06 08:41:26;;;;;;;11.10;10.70;;;22.10;21.00;;;;;;5069510;28;20647;-65
2022/08/06 08:43:59;;;;;;;11.27;10.87;;;22.20;20.80;;;;;;5070505;28;20934;-64
2022/08/06 08:46:26;;;;;;;12.13;11.33;;;22.30;20.10;;;;;;5070021;28;20437;-62
2022/08/06 08:48:54;;;;;;;12.33;11.63;;;22.20;20.50;;;;;;5069623;28;20460;-62
2022/08/06 08:51:21;;;;;;;11.70;11.20;;;22.20;20.70;;;;;;5069415;28;20414;-62
2022/08/06 08:53:55;;;;;;;11.57;11.10;;;22.10;21.20;;;;;;5069635;28;20422;-62
2022/08/06 08:56:22;;;;;;;12.30;11.70;;;22.00;21.10;;;;;;5069398;28;20723;-62
2022/08/06 08:58:48;;;;;;;11.90;11.50;;;22.00;20.80;;;;;;5069689;28;21044;-62
2022/08/06 09:01:16;;;;;;;11.17;10.87;;;21.50;21.40;;;;;;5068809;28;20442;-65
2022/08/06 09:03:42;;;;;;;12.00;11.50;;;21.60;21.90;;;;;;5069322;28;20506;-62
2022/08/06 09:06:08;;;;;;;11.60;11.20;;;21.80;21.60;;;;;;5069565;28;20451;-60
2022/08/06 09:08:36;;;;;;;12.87;12.30;;;22.00;21.00;;;;;;5069338;28;20418;-63
2022/08/06 09:11:02;;;;;;;12.67;12.17;;;22.10;20.90;;;;;;5069109;28;20936;-63
2022/08/06 09:13:28;;;;;;;12.70;12.20;;;22.10;20.90;;;;;;5069130;28;20449;-62
2022/08/06 09:15:55;;;;;;;12.30;11.90;;;22.00;20.40;;;;;;5069426;28;20438;-61
2022/08/06 09:18:22;;;;;;;12.80;12.30;;;21.90;20.90;;;;;;5069169;28;20485;-59
2022/08/06 09:20:48;;;;;;;12.53;12.03;;;21.80;20.90;;;;;;5068955;28;20476;-62
2022/08/06 09:23:17;;;;;;;11.60;11.20;;;21.90;21.20;;;;;;5069194;28;20415;-62
2022/08/06 09:25:49;;;;;;;12.33;11.90;;;21.90;21.10;;;;;;5068667;28;20461;-62
2022/08/06 09:28:32;;;;;;;12.80;12.20;;;22.00;20.80;;;;;;5068807;28;20418;-62
2022/08/06 09:30:59;;;;;;;12.07;11.57;;;22.20;20.70;;;;;;5069054;28;20415;-61
2022/08/06 09:33:26;;;;;;;12.67;12.13;;;22.00;20.70;;;;;;5068786;28;20414;-61
2022/08/06 09:35:59;;;;;;;11.90;11.40;;;22.10;20.40;;;;;;5069191;28;20457;-61
2022/08/06 09:38:26;;;;;;;12.20;11.70;;;22.20;19.60;;;;;;5068969;28;20466;-61
2022/08/06 09:41:11;;;;;;;11.10;10.70;;;22.50;19.70;;;;;;5068344;28;20407;-62
2022/08/06 09:43:38;;;;;;;11.60;11.20;;;22.30;20.20;;;;;;5068709;28;20781;-61
2022/08/06 09:46:05;;;;;;;11.60;11.20;;;22.30;20.30;;;;;;5068816;28;20460;-61
2022/08/06 09:48:31;;;;;;;10.60;10.20;;;22.00;20.70;;;;;;5068574;28;20428;-61
2022/08/06 09:50:57;;;;;;;11.47;10.80;;;22.20;20.40;;;;;;5068561;28;20414;-62
2022/08/06 09:53:23;;;;;;;10.50;10.10;;;22.40;20.10;;;;;;5068686;28;20894;-61
2022/08/06 09:55:54;;;;;;;11.30;10.80;;;22.40;19.50;;;;;;5053304;28;20410;-61
2022/08/06 09:58:31;;;;;;;11.80;11.30;;;22.20;19.50;;;;;;5068920;28;20553;-61
2022/08/06 10:00:57;;;;;;;11.13;10.73;;;22.40;19.40;;;;;;5068652;28;20428;-62
2022/08/06 10:03:23;;;;;;;11.87;11.47;;;22.40;19.30;;;;;;5053396;28;20949;-61
2022/08/06 10:06:04;;;;;;;11.80;11.10;;;22.20;19.10;;;;;;5068291;28;20423;-61
2022/08/06 10:08:29;;;;;;;11.70;11.30;;;22.20;19.60;;;;;;5068278;28;20409;-61
2022/08/06 10:10:58;;;;;;;11.90;11.40;;;22.40;19.30;;;;;;5068166;28;20414;-62
2022/08/06 10:13:26;;;;;;;12.60;11.83;;;22.30;19.00;;;;;;5067473;28;20222;-62
2022/08/06 10:16:18;;;;;;;12.40;11.90;;;22.10;18.80;;;;;;5067557;28;20726;-63
2022/08/06 10:18:49;;;;;;;12.40;12.00;;;22.10;19.10;;;;;;5052030;28;20917;-63
2022/08/06 10:21:22;;;;;;;12.93;12.20;;;22.20;19.30;;;;;;5067883;28;20921;-64
2022/08/06 10:23:50;;;;;;;12.37;11.87;;;22.30;19.00;;;;;;5067729;28;20941;-64
2022/08/06 10:26:18;;;;;;;12.40;11.90;;;22.30;18.90;;;;;;5068112;28;20414;-64
2022/08/06 10:28:46;;;;;;;11.77;11.17;;;22.20;19.10;;;;;;5068104;28;20505;-65
2022/08/06 10:31:14;;;;;;;11.30;10.70;;;22.40;19.00;;;;;;5067455;28;20422;-60
2022/08/06 10:34:00;;;;;;;12.07;10.90;;;22.70;18.60;;;;;;5067861;28;20518;-60
2022/08/06 10:36:34;;;;;;;11.30;10.70;;;23.00;17.40;;;;;;5067789;28;20934;-60
2022/08/06 10:39:00;;;;;;;11.67;11.23;;;22.90;18.40;;;;;;5067657;28;20426;-60
2022/08/06 10:41:27;;;;;;;11.53;10.90;;;23.20;17.80;;;;;;5052164;28;20394;-59
2022/08/06 10:43:54;;;;;;;10.90;10.50;;;23.10;17.80;;;;;;5067840;28;20415;-65
2022/08/06 10:46:21;;;;;;;12.87;11.10;;;23.10;17.60;;;;;;5067173;28;20406;-64
2022/08/06 10:48:48;;;;;;;11.70;11.03;;;23.10;17.40;;;;;;5067657;28;20426;-64
2022/08/06 10:51:14;;;;;;;11.50;11.03;;;23.40;17.40;;;;;;5067565;28;20443;-64
2022/08/06 10:53:44;;;;;;;10.73;10.33;;;23.60;16.60;;;;;;5067282;28;20426;-65
2022/08/06 10:56:12;;;;;;;10.70;10.30;;;23.70;15.60;;;;;;5067620;28;20426;-64
2022/08/06 10:58:39;;;;;;;11.23;10.73;;;23.70;16.00;;;;;;5067202;28;20466;-64
2022/08/06 11:01:34;;;;;;;11.17;10.77;;;23.80;15.70;;;;;;5066906;28;20472;-64
2022/08/06 11:04:15;;;;;;;11.10;10.50;;;23.90;15.70;;;;;;5067264;28;20461;-71
2022/08/06 11:07:05;;;;;;;11.67;11.27;;;23.80;15.70;;;;;;5067328;28;20884;-68
2022/08/06 11:10:18;;;;;;;12.20;11.70;;;23.80;15.70;;;;;;5066976;28;20454;-64
2022/08/06 11:12:52;;;;;;;11.00;10.40;;;23.90;16.20;;;;;;4970472;28;20456;-65
2022/08/06 11:15:19;;;;;;;11.10;10.47;;;23.90;15.30;;;;;;5043117;28;20410;-65
2022/08/06 11:18:02;;;;;;;11.20;10.70;;;23.70;16.30;;;;;;5067023;28;20982;-61
2022/08/06 11:20:36;;;;;;;10.48;10.00;;;23.80;15.70;;;;;;5066332;28;20461;-60
2022/08/06 11:23:12;;;;;;;11.67;11.07;;;23.70;15.60;;;;;;5067026;28;20167;-58
2022/08/06 11:25:48;;;;;;;11.23;10.83;;;23.50;15.50;;;;;;5066712;28;20406;-59
2022/08/06 11:28:36;;;;;;;11.20;10.70;;;23.50;16.90;;;;;;5051804;28;20800;-58
2022/08/06 11:31:05;;;;;;;12.47;11.40;;;23.70;15.90;;;;;;5066177;28;20418;-58
2022/08/06 11:33:33;;;;;;;11.57;11.10;;;23.70;15.60;;;;;;5066968;28;20422;-58
2022/08/06 11:36:01;;;;;;;10.80;10.50;;;23.60;15.50;;;;;;5067085;28;20505;-58
2022/08/06 11:38:48;;;;;;;10.80;10.27;;;23.70;16.60;;;;;;5066752;28;20454;-58
2022/08/06 11:41:32;;;;;;;11.13;10.63;;;23.90;15.70;;;;;;5066775;28;20410;-58
2022/08/06 11:43:58;;;;;;;10.83;10.40;;;23.90;15.30;;;;;;5066884;28;20413;-58
2022/08/06 11:46:33;;;;;;;10.40;9.90;;;23.70;15.60;;;;;;5066618;28;20410;-58
2022/08/06 11:48:58;;;;;;;10.80;10.27;;;23.80;15.70;;;;;;5067008;28;20224;-57
2022/08/06 11:51:51;;;;;;;10.40;10.00;;;23.90;15.70;;;;;;5066489;28;20499;-63
2022/08/06 11:54:33;;;;;;;11.00;10.50;;;23.60;15.60;;;;;;5051509;28;20183;-64
2022/08/06 11:57:04;;;;;;;10.97;10.47;;;23.70;16.20;;;;;;5066739;28;20520;-64
2022/08/06 12:00:05;;;;;;;10.40;9.80;;;23.80;16.10;;;;;;5066690;28;20422;-64
2022/08/06 12:02:40;;;;;;;10.70;10.20;;;23.80;15.60;;;;;;5066581;28;20424;-58
2022/08/06 12:05:14;;;;;;;10.83;10.43;;;23.60;15.80;;;;;;5066774;28;20810;-58
2022/08/06 12:07:44;;;;;;;10.20;9.80;;;23.70;15.90;;;;;;5066645;28;20417;-58
2022/08/06 12:10:11;;;;;;;10.40;9.90;;;23.80;15.70;;;;;;5066921;28;20518;-58
2022/08/06 12:12:47;;;;;;;10.87;10.27;;;23.80;15.70;;;;;;5067175;28;20465;-58
2022/08/06 12:15:12;;;;;;;10.60;10.20;;;23.80;15.20;;;;;;5067014;28;20414;-58
2022/08/06 12:17:54;;;;;;;12.00;11.40;;;23.90;15.30;;;;;;5066766;28;20454;-59
2022/08/06 12:20:31;;;;;;;11.73;11.10;;;23.90;15.70;;;;;;5067329;28;20190;-59
2022/08/06 12:23:02;;;;;;;11.20;10.70;;;23.90;14.90;;;;;;5066924;28;20985;-58
2022/08/06 12:25:35;;;;;;;10.60;10.20;;;24.00;15.20;;;;;;5067020;28;20418;-58
2022/08/06 12:28:01;;;;;;;10.97;10.57;;;23.70;15.00;;;;;;5066941;28;20419;-59
2022/08/06 12:30:42;;;;;;;10.87;10.40;;;23.80;15.10;;;;;;5066543;28;20868;-58
2022/08/06 12:33:09;;;;;;;11.20;10.80;;;23.80;15.00;;;;;;5066980;28;20450;-59
2022/08/06 12:35:36;;;;;;;11.60;11.10;;;23.80;14.90;;;;;;5066988;28;20532;-59
2022/08/06 12:38:02;;;;;;;11.33;10.83;;;23.80;15.00;;;;;;5069124;28;20457;-59
2022/08/06 12:40:28;;;;;;;11.07;10.70;;;23.80;15.00;;;;;;5065720;28;20416;-59
2022/08/06 12:43:14;;;;;;;11.60;10.90;;;23.90;15.00;;;;;;5073943;28;20174;-59
2022/08/06 12:45:40;;;;;;;12.50;11.80;;;24.10;14.80;;;;;;5073576;28;20178;-59
2022/08/06 12:48:10;;;;;;;11.47;10.80;;;24.00;14.70;;;;;;5073738;28;20559;-59